Albemarle Island — C6LU3 — position and weather

sailwx.info

Track history (hours):
 
Tides and Currents Weather Stations Pressure Air Temp Water Temp Dewpoint Dewpoint Depression Visibility Wind Speed Wind Dir Waves Ship Positions

Albemarle Island

Last reported at 2017-Jan-07 12:00 UTC. Time now 2017-Jan-17 11:02 UTC.
Position N 23°42' W 051°54'.
Warning: this ship's position is 9 days out of date.

Type: Cargo ship. MMSI: 308511000.

Wind from 060 at 10 knots

Barometer 1025.0 mb
Air temperature 23.0 ° C
Visibility: greater than 10.8 NM
Dewpoint 20.0 ° C

Date/timePositionNaut miles runAvg speedWind from/ knotsBaromVisibWave heightAir tempDewpointWater temp
2017-Jan-07 12:00N 23°42' W 051°54'21117.6 060 / 101025.010.8 23.020.0
2017-Jan-07 00:00N 24°42' W 048°12'63617.7 020 / 101024.0 5.4 21.018.0
2017-Jan-05 12:00N 27°48' W 036°54'39216.3 320 / 221019.0 5.4 22.019.0
2017-Jan-04 12:00N 30°42' W 030°12'40015.7 270 / 221017.0 5.4 19.018.0
2017-Jan-03 10:33N 35°41' W 024°55'1716.8
2017-Jan-03 09:33N 35°53' W 024°41'1716.9
2017-Jan-03 08:33N 36°05' W 024°27'1716.9
2017-Jan-03 07:33N 36°18' W 024°13'1616.5
2017-Jan-03 06:33N 36°30' W 023°59'1716.9
2017-Jan-03 05:33N 36°43' W 023°45'1717.2
2017-Jan-03 04:33N 36°55' W 023°30'69917.2
2017-Jan-01 12:00N 45°00' W 012°24'33016.9 010 / 101022.010.8 13.0 9.0
2016-Dec-31 16:24N 48°41' W 006°25'1315.6
2016-Dec-31 15:33N 48°50' W 006°10'1615.9
2016-Dec-31 14:31N 49°00' W 005°51'1616.7
2016-Dec-31 13:33N 49°11' W 005°33'1817.7
2016-Dec-31 12:32N 49°23' W 005°12'2317.0
2016-Dec-31 11:09N 49°35' W 004°41'1617.9
2016-Dec-31 10:17N 49°41' W 004°19'1717.1
2016-Dec-31 09:16N 49°46' W 003°53'1116.2
2016-Dec-31 08:33N 49°50' W 003°36'1515.5
2016-Dec-31 07:33N 49°54' W 003°13'1615.6
2016-Dec-31 06:33N 49°59' W 002°50'3817.6
2016-Dec-31 04:23N 50°10' W 001°53'4320.1
2016-Dec-31 02:15N 50°22' W 000°49'1519.2
2016-Dec-31 01:30N 50°26' W 000°27'1718.0
2016-Dec-31 00:34N 50°30' W 000°01'1717.0
2016-Dec-30 23:33N 50°34' E 000°25'3416.3
2016-Dec-30 21:28N 50°52' E 001°11'1719.2
2016-Dec-30 20:34N 51°04' E 001°31'2019.9
2016-Dec-30 19:34N 51°18' E 001°52'1414.2
2016-Dec-30 18:33N 51°21' E 002°15'1817.9
2016-Dec-30 17:33N 51°23' E 002°43'1313.4
2016-Dec-30 16:33N 51°24' E 003°05'1615.7
2016-Dec-30 15:33N 51°25' E 003°30'9 8.3
2016-Dec-30 14:30N 51°27' E 003°44'0 0.0
2016-Dec-30 13:33N 51°27' E 003°44'0 0.0
2016-Dec-30 12:33N 51°27' E 003°44'0 0.0
2016-Dec-30 11:33N 51°27' E 003°44'0 0.0
2016-Dec-30 10:33N 51°27' E 003°44'0 0.0
2016-Dec-30 09:33N 51°27' E 003°44'0 0.0
2016-Dec-30 08:33N 51°27' E 003°44'0 0.0
2016-Dec-30 07:33N 51°27' E 003°44'0 0.0
2016-Dec-30 06:33N 51°27' E 003°44'0 0.0
2016-Dec-30 05:33N 51°27' E 003°44'2 1.6
2016-Dec-30 04:33N 51°28' E 003°41'7 6.6
2016-Dec-30 03:33N 51°28' E 003°30'1414.3
2016-Dec-30 02:33N 51°40' E 003°18'10 9.6
2016-Dec-30 01:33N 51°46' E 003°06'7 7.3
2016-Dec-30 00:33N 51°48' E 002°54'1111.2
2016-Dec-29 23:33N 51°54' E 002°39'2120.5
2016-Dec-29 22:34N 52°14' E 002°43'2221.6
2016-Dec-29 21:34N 52°34' E 002°58'2221.6
2016-Dec-29 20:33N 52°54' E 003°13'2121.0
2016-Dec-29 19:34N 53°13' E 003°25'2020.3
2016-Dec-29 18:33N 53°33' E 003°36'1919.0
2016-Dec-29 17:33N 53°49' E 003°53'2019.8
2016-Dec-29 16:33N 54°01' E 004°20'2220.2
2016-Dec-29 15:29N 54°18' E 004°43'28016.5
2016-Dec-28 22:33N 57°50' E 010°09'1815.8
2016-Dec-28 21:26N 57°49' E 010°42'1415.8
2016-Dec-28 20:33N 57°41' E 011°02'1616.4
2016-Dec-28 19:33N 57°29' E 011°24'1616.4
2016-Dec-28 18:34N 57°14' E 011°36'1817.0
2016-Dec-28 17:32N 56°58' E 011°48'  
Track history (hours):
 
Tides and Currents Weather Stations Pressure Air Temp Water Temp Dewpoint Dewpoint Depression Visibility Wind Speed Wind Dir Waves Ship Positions

Albemarle Island

Last reported at 2017-Jan-07 12:00 UTC. Time now 2017-Jan-17 11:02 UTC.
Position N 23°42' W 051°54'.
Warning: this ship's position is 9 days out of date.

Type: Cargo ship. MMSI: 308511000.

Wind from 060 at 10 knots

Barometer 1025.0 mb
Air temperature 23.0 ° C
Visibility: greater than 10.8 NM
Dewpoint 20.0 ° C

Date/timePositionNaut miles runAvg speedWind from/ knotsBaromVisibWave heightAir tempDewpointWater temp
2017-Jan-07 12:00N 23°42' W 051°54'21117.6 060 / 101025.010.8 23.020.0
2017-Jan-07 00:00N 24°42' W 048°12'63617.7 020 / 101024.0 5.4 21.018.0
2017-Jan-05 12:00N 27°48' W 036°54'39216.3 320 / 221019.0 5.4 22.019.0
2017-Jan-04 12:00N 30°42' W 030°12'40015.7 270 / 221017.0 5.4 19.018.0
2017-Jan-03 10:33N 35°41' W 024°55'1716.8
2017-Jan-03 09:33N 35°53' W 024°41'1716.9
2017-Jan-03 08:33N 36°05' W 024°27'1716.9
2017-Jan-03 07:33N 36°18' W 024°13'1616.5
2017-Jan-03 06:33N 36°30' W 023°59'1716.9
2017-Jan-03 05:33N 36°43' W 023°45'1717.2
2017-Jan-03 04:33N 36°55' W 023°30'69917.2
2017-Jan-01 12:00N 45°00' W 012°24'33016.9 010 / 101022.010.8 13.0 9.0
2016-Dec-31 16:24N 48°41' W 006°25'1315.6
2016-Dec-31 15:33N 48°50' W 006°10'1615.9
2016-Dec-31 14:31N 49°00' W 005°51'1616.7
2016-Dec-31 13:33N 49°11' W 005°33'1817.7
2016-Dec-31 12:32N 49°23' W 005°12'2317.0
2016-Dec-31 11:09N 49°35' W 004°41'1617.9
2016-Dec-31 10:17N 49°41' W 004°19'1717.1
2016-Dec-31 09:16N 49°46' W 003°53'1116.2
2016-Dec-31 08:33N 49°50' W 003°36'1515.5
2016-Dec-31 07:33N 49°54' W 003°13'1615.6
2016-Dec-31 06:33N 49°59' W 002°50'3817.6
2016-Dec-31 04:23N 50°10' W 001°53'4320.1
2016-Dec-31 02:15N 50°22' W 000°49'1519.2
2016-Dec-31 01:30N 50°26' W 000°27'1718.0
2016-Dec-31 00:34N 50°30' W 000°01'1717.0
2016-Dec-30 23:33N 50°34' E 000°25'3416.3
2016-Dec-30 21:28N 50°52' E 001°11'1719.2
2016-Dec-30 20:34N 51°04' E 001°31'2019.9
2016-Dec-30 19:34N 51°18' E 001°52'1414.2
2016-Dec-30 18:33N 51°21' E 002°15'1817.9
2016-Dec-30 17:33N 51°23' E 002°43'1313.4
2016-Dec-30 16:33N 51°24' E 003°05'1615.7
2016-Dec-30 15:33N 51°25' E 003°30'9 8.3
2016-Dec-30 14:30N 51°27' E 003°44'0 0.0
2016-Dec-30 13:33N 51°27' E 003°44'0 0.0
2016-Dec-30 12:33N 51°27' E 003°44'0 0.0
2016-Dec-30 11:33N 51°27' E 003°44'0 0.0
2016-Dec-30 10:33N 51°27' E 003°44'0 0.0
2016-Dec-30 09:33N 51°27' E 003°44'0 0.0
2016-Dec-30 08:33N 51°27' E 003°44'0 0.0
2016-Dec-30 07:33N 51°27' E 003°44'0 0.0
2016-Dec-30 06:33N 51°27' E 003°44'0 0.0
2016-Dec-30 05:33N 51°27' E 003°44'2 1.6
2016-Dec-30 04:33N 51°28' E 003°41'7 6.6
2016-Dec-30 03:33N 51°28' E 003°30'1414.3
2016-Dec-30 02:33N 51°40' E 003°18'10 9.6
2016-Dec-30 01:33N 51°46' E 003°06'7 7.3
2016-Dec-30 00:33N 51°48' E 002°54'1111.2
2016-Dec-29 23:33N 51°54' E 002°39'2120.5
2016-Dec-29 22:34N 52°14' E 002°43'2221.6
2016-Dec-29 21:34N 52°34' E 002°58'2221.6
2016-Dec-29 20:33N 52°54' E 003°13'2121.0
2016-Dec-29 19:34N 53°13' E 003°25'2020.3
2016-Dec-29 18:33N 53°33' E 003°36'1919.0
2016-Dec-29 17:33N 53°49' E 003°53'2019.8
2016-Dec-29 16:33N 54°01' E 004°20'2220.2
2016-Dec-29 15:29N 54°18' E 004°43'28016.5
2016-Dec-28 22:33N 57°50' E 010°09'1815.8
2016-Dec-28 21:26N 57°49' E 010°42'1415.8
2016-Dec-28 20:33N 57°41' E 011°02'1616.4
2016-Dec-28 19:33N 57°29' E 011°24'1616.4
2016-Dec-28 18:34N 57°14' E 011°36'1817.0
2016-Dec-28 17:32N 56°58' E 011°48'  

Dump ship's entire track history